createdAt,value
2022-11-15T00:02:27.244Z,21.38
2022-11-15T00:07:55.977Z,20.17
2022-11-15T00:13:18.613Z,26.23
2022-11-15T00:18:42.482Z,22.00
2022-11-15T00:29:31.013Z,25.83
2022-11-15T00:34:53.533Z,19.60
2022-11-15T00:40:17.654Z,22.38
2022-11-15T00:45:39.865Z,22.73
2022-11-15T00:51:02.132Z,23.95
2022-11-15T00:56:26.119Z,24.67
2022-11-15T01:01:48.471Z,26.40
2022-11-15T01:07:10.551Z,25.45
2022-11-15T01:12:34.542Z,22.85
2022-11-15T01:17:57.068Z,26.58
2022-11-15T01:23:19.231Z,24.80
2022-11-15T01:28:44.113Z,24.58
2022-11-15T01:34:06.399Z,23.70
2022-11-15T01:39:28.957Z,22.75
2022-11-15T01:44:54.230Z,26.15
2022-11-15T01:50:19.110Z,11.27
2022-11-15T01:55:41.349Z,23.20
2022-11-15T02:01:05.276Z,21.83
2022-11-15T02:06:27.830Z,26.13
2022-11-15T02:11:51.106Z,25.50
2022-11-15T02:17:33.849Z,24.80
2022-11-15T02:23:13.753Z,28.08
2022-11-15T02:28:49.009Z,25.25
2022-11-15T02:34:21.883Z,25.85
2022-11-15T02:39:49.469Z,25.63
2022-11-15T02:45:15.574Z,26.58
2022-11-15T02:50:39.305Z,26.33
2022-11-15T02:56:01.339Z,23.88
2022-11-15T03:01:32.778Z,25.30
2022-11-15T03:07:01.721Z,21.10
2022-11-15T03:12:30.456Z,24.73
2022-11-15T03:17:57.830Z,25.83
2022-11-15T03:23:21.583Z,26.55
2022-11-15T03:28:47.918Z,27.45
2022-11-15T03:34:13.722Z,26.45
2022-11-15T03:39:37.293Z,26.52
2022-11-15T03:45:04.051Z,25.65
2022-11-15T03:50:27.027Z,31.20
2022-11-15T03:55:50.574Z,29.65
2022-11-15T04:01:14.039Z,26.65
2022-11-15T04:06:36.424Z,30.60
2022-11-15T04:11:59.930Z,30.38
2022-11-15T04:17:22.266Z,29.40
2022-11-15T04:23:02.523Z,29.95
2022-11-15T04:28:26.323Z,26.67
2022-11-15T04:33:48.513Z,30.90
2022-11-15T04:39:10.561Z,30.88
2022-11-15T04:44:34.113Z,28.63
2022-11-15T04:49:56.356Z,30.13
2022-11-15T04:55:18.667Z,29.17
2022-11-15T05:00:42.219Z,28.58
2022-11-15T05:06:04.913Z,28.98
2022-11-15T05:11:28.367Z,31.58
2022-11-15T05:16:52.116Z,31.30
2022-11-15T05:22:14.347Z,30.58
2022-11-15T05:27:36.670Z,28.90
2022-11-15T05:33:00.183Z,31.15
2022-11-15T05:38:22.154Z,35.33
2022-11-15T05:43:45.331Z,31.80
2022-11-15T05:49:10.241Z,31.42
2022-11-15T05:54:33.589Z,32.00
2022-11-15T05:59:56.390Z,23.00
2022-11-15T06:05:19.981Z,25.55
2022-11-15T06:10:42.261Z,24.33
2022-11-15T06:16:04.458Z,24.30
2022-11-15T06:21:30.245Z,23.30
2022-11-15T06:26:52.849Z,27.10
2022-11-15T06:32:14.940Z,26.40
2022-11-15T06:37:38.484Z,21.92
2022-11-15T06:43:01.368Z,25.23
2022-11-15T06:48:23.378Z,26.27
2022-11-15T06:53:46.698Z,24.40
2022-11-15T06:59:09.086Z,21.73
2022-11-15T07:04:31.718Z,25.40
2022-11-15T07:09:55.444Z,25.67
2022-11-15T07:15:18.125Z,20.13
2022-11-15T07:20:42.713Z,27.90
2022-11-15T07:26:06.380Z,27.17
2022-11-15T07:31:29.127Z,30.42
2022-11-15T07:36:51.154Z,29.17
2022-11-15T07:42:31.803Z,29.05
2022-11-15T07:47:54.679Z,30.75
2022-11-15T07:53:17.424Z,26.63
2022-11-15T07:58:41.547Z,29.02
2022-11-15T08:04:03.617Z,28.10
2022-11-15T08:09:25.562Z,29.17
2022-11-15T08:14:49.453Z,28.25
2022-11-15T08:20:12.870Z,29.83
2022-11-15T08:25:36.174Z,27.67
2022-11-15T08:30:59.811Z,28.88
2022-11-15T08:36:22.032Z,31.10
2022-11-15T08:41:45.709Z,32.30
2022-11-15T08:47:09.410Z,30.83
2022-11-15T08:52:31.786Z,30.42
2022-11-15T08:57:53.879Z,29.92
2022-11-15T09:03:17.460Z,32.90
2022-11-15T09:08:51.629Z,30.48
2022-11-15T09:14:14.442Z,32.65
2022-11-15T09:19:38.084Z,37.60
2022-11-15T09:25:00.313Z,32.42
2022-11-15T09:30:22.884Z,37.63
2022-11-15T09:35:46.606Z,32.45
2022-11-15T09:41:36.897Z,34.35
2022-11-15T09:47:05.762Z,34.30
2022-11-15T09:52:31.046Z,35.42
2022-11-15T09:57:41.538Z,30.83
2022-11-15T10:02:59.089Z,37.80
2022-11-15T10:08:08.946Z,31.52
2022-11-15T10:13:22.747Z,35.83
2022-11-15T10:18:30.871Z,34.83
2022-11-15T10:23:36.268Z,34.83
2022-11-15T10:28:40.210Z,34.97
2022-11-15T10:33:43.978Z,32.55
2022-11-15T10:38:57.965Z,35.75
2022-11-15T10:44:14.070Z,34.10
2022-11-15T10:49:20.662Z,33.78
2022-11-15T10:54:30.766Z,33.90
2022-11-15T10:59:39.013Z,35.40
2022-11-15T11:04:52.182Z,32.85
2022-11-15T11:10:49.253Z,33.05
2022-11-15T11:15:45.897Z,33.95
2022-11-15T11:20:53.657Z,34.45
2022-11-15T11:26:12.846Z,32.45
2022-11-15T11:31:25.388Z,33.00
2022-11-15T11:36:34.742Z,34.17
2022-11-15T11:41:49.272Z,31.98
2022-11-15T11:46:57.831Z,32.72
2022-11-15T11:52:05.681Z,33.35
2022-11-15T11:57:17.208Z,30.65
2022-11-15T12:02:27.031Z,31.88
2022-11-15T12:07:34.542Z,31.55
2022-11-15T12:12:45.489Z,33.55
2022-11-15T12:17:49.819Z,31.25
2022-11-15T12:22:57.684Z,29.35
2022-11-15T12:28:10.625Z,31.88
2022-11-15T12:33:36.932Z,29.90
2022-11-15T12:38:58.891Z,30.73
2022-11-15T12:44:04.970Z,30.23
2022-11-15T12:49:12.601Z,28.63
2022-11-15T12:54:55.374Z,30.95
2022-11-15T13:00:04.311Z,29.80
2022-11-15T13:05:54.513Z,29.15
2022-11-15T13:10:58.390Z,34.28
2022-11-15T13:16:04.046Z,33.72
2022-11-15T13:21:39.389Z,29.45
2022-11-15T13:26:43.414Z,33.53
2022-11-15T13:31:49.165Z,29.70
2022-11-15T13:36:55.056Z,31.60
2022-11-15T13:41:59.255Z,29.55
2022-11-15T13:47:06.745Z,29.63
2022-11-15T13:52:15.016Z,27.85
2022-11-15T13:57:22.871Z,31.67
2022-11-15T14:02:32.958Z,28.77
2022-11-15T14:07:44.313Z,28.40
2022-11-15T14:12:53.074Z,28.77
2022-11-15T14:17:58.327Z,29.83
2022-11-15T14:23:08.209Z,27.55
2022-11-15T14:28:32.017Z,28.38
2022-11-15T14:33:38.458Z,28.55
2022-11-15T14:38:43.926Z,29.17
2022-11-15T14:43:47.885Z,27.42
2022-11-15T14:48:53.240Z,28.92
2022-11-15T14:53:57.490Z,14.07
2022-11-15T14:59:01.366Z,30.63
2022-11-15T15:04:06.628Z,29.55
2022-11-15T15:09:10.548Z,30.83
2022-11-15T15:14:17.266Z,28.73
2022-11-15T15:19:26.083Z,29.90
2022-11-15T15:24:30.197Z,27.33
2022-11-15T15:29:34.080Z,29.73
2022-11-15T15:34:43.102Z,28.67
2022-11-15T15:39:53.961Z,30.70
2022-11-15T15:44:57.782Z,32.88
2022-11-15T15:50:03.583Z,32.67
2022-11-15T15:55:08.049Z,29.23
2022-11-15T16:00:13.285Z,30.75
2022-11-15T16:05:19.195Z,15.47
2022-11-15T16:10:26.012Z,31.30
2022-11-15T16:15:32.529Z,30.58
2022-11-15T16:20:40.446Z,28.65
2022-11-15T16:25:47.805Z,31.15
2022-11-15T16:31:00.955Z,30.45
2022-11-15T16:36:08.155Z,32.05
2022-11-15T16:41:11.958Z,29.20
2022-11-15T16:46:18.382Z,32.30
2022-11-15T16:51:24.133Z,32.60
2022-11-15T16:56:29.465Z,32.10
2022-11-15T17:01:35.468Z,31.93
2022-11-15T17:11:45.411Z,34.35
2022-11-15T17:16:49.314Z,33.22
2022-11-15T17:21:54.555Z,35.33
2022-11-15T17:26:58.329Z,20.73
2022-11-15T17:32:02.324Z,34.75
2022-11-15T17:37:07.517Z,36.88
2022-11-15T17:42:11.286Z,34.63
2022-11-15T17:47:15.053Z,35.33
2022-11-15T17:52:20.419Z,35.15
2022-11-15T17:57:24.224Z,29.27
2022-11-15T18:02:28.217Z,36.35
2022-11-15T18:07:33.508Z,34.53
2022-11-15T18:12:37.437Z,32.90
2022-11-15T18:17:41.419Z,36.38
2022-11-15T18:22:47.307Z,35.95
2022-11-15T18:27:55.318Z,35.05
2022-11-15T18:32:59.118Z,35.60
2022-11-15T18:38:04.574Z,35.40
2022-11-15T18:43:08.358Z,38.60
2022-11-15T18:48:12.137Z,40.47
2022-11-15T18:53:17.554Z,36.25
2022-11-15T18:58:21.338Z,41.93
2022-11-15T19:03:25.223Z,38.88
2022-11-15T19:08:34.294Z,37.53
2022-11-15T19:13:39.492Z,37.85
2022-11-15T19:18:43.745Z,40.88
2022-11-15T19:23:49.107Z,39.78
2022-11-15T19:28:53.879Z,38.47
2022-11-15T19:33:59.678Z,41.03
2022-11-15T19:39:08.562Z,41.45
2022-11-15T19:44:13.693Z,41.67
2022-11-15T19:49:17.501Z,34.58
2022-11-15T19:54:22.702Z,42.65
2022-11-15T19:59:26.629Z,33.00
2022-11-15T20:04:30.613Z,42.20
2022-11-15T20:09:35.919Z,50.88
2022-11-15T20:14:39.757Z,35.17
2022-11-15T20:19:43.695Z,47.30
2022-11-15T20:24:48.963Z,49.47
2022-11-15T20:29:54.662Z,48.80
2022-11-15T20:34:58.473Z,49.92
2022-11-15T20:40:03.662Z,53.80
2022-11-15T20:45:08.585Z,51.33
2022-11-15T20:50:40.487Z,52.63
2022-11-15T20:55:42.566Z,52.35
2022-11-15T21:00:46.886Z,53.40
2022-11-15T21:05:50.695Z,50.20
2022-11-15T21:11:13.686Z,50.17
2022-11-15T21:16:17.730Z,57.22
2022-11-15T21:21:21.630Z,51.42
2022-11-15T21:26:26.889Z,53.10
2022-11-15T21:31:32.077Z,46.97
2022-11-15T21:36:35.948Z,48.17
2022-11-15T21:41:41.132Z,56.05
2022-11-15T21:46:44.963Z,47.37
2022-11-15T21:51:48.766Z,55.08
2022-11-15T21:56:54.048Z,55.67
2022-11-15T22:02:16.053Z,53.13
2022-11-15T22:07:20.391Z,58.83
2022-11-15T22:12:29.568Z,63.97
2022-11-15T22:17:47.709Z,69.25
2022-11-15T22:22:51.705Z,74.65
2022-11-15T22:27:57.327Z,74.90
2022-11-15T22:33:01.450Z,78.90
2022-11-15T22:38:05.801Z,151.05
2022-11-15T22:43:11.552Z,133.63
2022-11-15T22:48:15.703Z,144.00
2022-11-15T22:53:20.090Z,153.88
2022-11-15T22:58:27.765Z,175.98
2022-11-15T23:03:32.688Z,169.68
2022-11-15T23:08:37.209Z,168.07
2022-11-15T23:13:43.154Z,156.02
2022-11-15T23:18:47.032Z,148.65
2022-11-15T23:23:50.957Z,156.32
2022-11-15T23:28:57.524Z,180.68
2022-11-15T23:34:01.878Z,185.32
2022-11-15T23:39:06.010Z,199.45
2022-11-15T23:44:11.825Z,193.15
2022-11-15T23:49:15.887Z,183.30
2022-11-15T23:54:20.197Z,185.95
2022-11-15T23:59:25.571Z,192.70
